Time;durP1;ratioP1;P1;durP2;ratioP2;P2;SDS_P1;SDS_P2;PMS_P1;PMS_P2;Temp;Humidity;BMP_temperature;BMP_pressure;BME280_temperature;BME280_humidity;BME280_pressure;Samples;Min_cycle;Max_cycle;Signal;HPM_P1;HPM_P2
2022/05/28 00:03:21;;;;;;;;;;;;;;;22.27;41.90;95926.38;10351464;28;2284;-60
2022/05/28 00:08:21;;;;;;;;;;;;;;;22.28;42.01;95921.84;10352173;28;2252;-61
2022/05/28 00:13:23;;;;;;;;;;;;;;;22.27;41.97;95921.09;10344515;28;2234;-62
2022/05/28 00:18:24;;;;;;;;;;;;;;;22.27;41.80;95913.19;10358438;28;2079;-63
2022/05/28 00:23:24;;;;;;;;;;;;;;;22.27;41.93;95915.81;10337000;28;2253;-62
2022/05/28 00:28:25;;;;;;;;;;;;;;;22.28;41.98;95916.56;10338481;28;2257;-63
2022/05/28 00:33:25;;;;;;;;;;;;;;;22.26;41.96;95913.44;10342310;28;2241;-63
2022/05/28 00:38:26;;;;;;;;;;;;;;;22.26;41.68;95908.94;10337354;28;2167;-63
2022/05/28 00:43:27;;;;;;;;;;;;;;;22.25;41.86;95904.75;10340520;28;2262;-63
2022/05/28 00:48:29;;;;;;;;;;;;;;;22.24;41.98;95895.22;10323042;28;2397;-63
2022/05/28 00:53:29;;;;;;;;;;;;;;;22.23;41.71;95901.59;10307047;28;2267;-61
2022/05/28 00:58:29;;;;;;;;;;;;;;;22.23;41.98;95901.59;10330604;28;2402;-63
2022/05/28 01:03:35;;;;;;;;;;;;;;;22.23;41.71;95904.25;10316961;28;2252;-62
2022/05/28 01:08:46;;;;;;;;;;;;;;;22.22;41.99;95893.94;10342156;28;2281;-63
2022/05/28 01:13:57;;;;;;;;;;;;;;;22.22;41.87;95894.72;10351645;28;2356;-61
2022/05/28 01:19:18;;;;;;;;;;;;;;;22.21;41.77;95882.59;10318919;28;2254;-64
2022/05/28 01:24:49;;;;;;;;;;;;;;;22.21;41.99;95879.97;10352918;28;2309;-62
2022/05/28 01:29:56;;;;;;;;;;;;;;;22.21;41.75;95877.31;10321782;28;2365;-62
2022/05/28 01:35:10;;;;;;;;;;;;;;;22.21;41.67;95885.25;10332966;28;2320;-64
2022/05/28 01:40:11;;;;;;;;;;;;;;;22.21;41.55;95876.53;10338537;28;2304;-63
2022/05/28 01:45:12;;;;;;;;;;;;;;;22.20;42.02;95881.03;10349686;28;2286;-63
2022/05/28 01:50:13;;;;;;;;;;;;;;;22.19;41.73;95873.38;10337958;28;2388;-62
2022/05/28 01:55:15;;;;;;;;;;;;;;;22.19;41.91;95879.47;10338000;28;2372;-63
2022/05/28 02:00:15;;;;;;;;;;;;;;;22.18;41.84;95875.22;10323985;28;2520;-61
2022/05/28 02:05:16;;;;;;;;;;;;;;;22.17;41.55;95875.53;10337324;28;2367;-63
2022/05/28 02:10:17;;;;;;;;;;;;;;;22.17;41.64;95878.16;10342626;28;2345;-61
2022/05/28 02:15:24;;;;;;;;;;;;;;;22.16;41.66;95872.09;10323808;28;2373;-62
2022/05/28 02:20:29;;;;;;;;;;;;;;;22.15;41.88;95867.09;10353686;28;2314;-63
2022/05/28 02:25:36;;;;;;;;;;;;;;;22.14;41.78;95873.44;10328029;28;2414;-62
2022/05/28 02:31:06;;;;;;;;;;;;;;;22.13;41.63;95856.03;10329269;28;2489;-64
2022/05/28 02:36:06;;;;;;;;;;;;;;;22.11;41.61;95848.41;10322023;28;2489;-61
2022/05/28 02:41:08;;;;;;;;;;;;;;;22.10;41.69;95852.09;10346812;28;2367;-63
2022/05/28 02:46:09;;;;;;;;;;;;;;;22.09;41.60;95855.78;10334444;28;2501;-63
2022/05/28 02:51:10;;;;;;;;;;;;;;;22.10;41.54;95852.09;10339960;28;2299;-63
2022/05/28 02:56:10;;;;;;;;;;;;;;;22.09;41.82;95855.78;10345811;28;2384;-63
2022/05/28 03:01:27;;;;;;;;;;;;;;;22.10;41.73;95862.66;10360539;28;2334;-61
2022/05/28 03:06:27;;;;;;;;;;;;;;;22.08;41.83;95854.22;10360516;28;2346;-60
2022/05/28 03:11:27;;;;;;;;;;;;;;;22.08;41.70;95856.06;10338530;28;2573;-63
2022/05/28 03:16:28;;;;;;;;;;;;;;;22.07;41.69;95868.47;10340015;28;2458;-61
2022/05/28 03:21:28;;;;;;;;;;;;;;;22.06;41.43;95864.28;10343238;28;2503;-63
2022/05/28 03:26:29;;;;;;;;;;;;;;;22.05;41.64;95865.31;10338905;28;2335;-64
2022/05/28 03:31:29;;;;;;;;;;;;;;;22.04;41.77;95870.91;10333773;28;2407;-64
2022/05/28 03:36:30;;;;;;;;;;;;;;;22.02;41.61;95876.47;10335694;28;2526;-64
2022/05/28 03:41:32;;;;;;;;;;;;;;;22.01;41.67;95869.59;10354130;28;2286;-63
2022/05/28 03:46:34;;;;;;;;;;;;;;;22.01;41.62;95864.31;10353134;28;2378;-64
2022/05/28 03:51:35;;;;;;;;;;;;;;;22.02;41.37;95871.19;10338876;28;2450;-62
2022/05/28 03:56:35;;;;;;;;;;;;;;;22.01;41.53;95888.06;10340783;28;2515;-61
2022/05/28 04:01:36;;;;;;;;;;;;;;;22.00;41.66;95888.34;10333744;28;2388;-63
2022/05/28 04:06:36;;;;;;;;;;;;;;;21.94;41.39;95887.63;10351264;28;2336;-62
2022/05/28 04:11:38;;;;;;;;;;;;;;;21.91;41.22;95898.72;10354144;28;2383;-62
2022/05/28 04:16:40;;;;;;;;;;;;;;;21.91;41.33;95900.59;10352364;28;2275;-62
2022/05/28 04:21:40;;;;;;;;;;;;;;;21.87;41.10;95887.16;10356303;28;2409;-64
2022/05/28 04:26:41;;;;;;;;;;;;;;;21.83;40.98;95897.50;10349665;28;2459;-62
2022/05/28 04:31:42;;;;;;;;;;;;;;;21.78;40.61;95907.28;10358775;28;2355;-61
2022/05/28 04:36:43;;;;;;;;;;;;;;;21.69;40.41;95908.94;10349419;28;2267;-62
2022/05/28 04:41:43;;;;;;;;;;;;;;;21.65;40.02;95915.81;10357017;28;2318;-60
2022/05/28 04:46:43;;;;;;;;;;;;;;;21.59;39.50;95911.66;10345676;28;2277;-63
2022/05/28 04:51:44;;;;;;;;;;;;;;;21.50;39.61;95916.72;10339709;28;2392;-61
2022/05/28 04:56:45;;;;;;;;;;;;;;;21.47;39.45;95925.19;10345013;28;2438;-62
2022/05/28 05:01:45;;;;;;;;;;;;;;;21.49;39.67;95922.28;10335070;28;2331;-62
2022/05/28 05:06:45;;;;;;;;;;;;;;;21.48;39.41;95918.84;10332945;28;2288;-62
2022/05/28 05:11:46;;;;;;;;;;;;;;;21.48;39.17;95925.97;10352188;28;2387;-62
2022/05/28 05:16:46;;;;;;;;;;;;;;;21.50;39.31;95931.75;10343548;28;2470;-63
2022/05/28 05:21:46;;;;;;;;;;;;;;;21.51;39.02;95928.06;10338552;28;2359;-62
2022/05/28 05:26:47;;;;;;;;;;;;;;;21.52;38.87;95927.00;10344678;28;2377;-62
2022/05/28 05:31:47;;;;;;;;;;;;;;;21.51;38.69;95906.97;10337107;28;2407;-62
2022/05/28 05:36:49;;;;;;;;;;;;;;;21.46;38.29;95914.91;10343212;28;2356;-63
2022/05/28 05:41:50;;;;;;;;;;;;;;;21.38;37.90;95918.91;10334046;28;2471;-61
2022/05/28 05:46:51;;;;;;;;;;;;;;;21.35;37.90;95930.00;10347495;28;2349;-63
2022/05/28 05:51:52;;;;;;;;;;;;;;;21.40;37.95;95934.47;10354644;28;2540;-63
2022/05/28 05:56:53;;;;;;;;;;;;;;;21.42;38.01;95924.44;10343521;28;2246;-64
2022/05/28 06:01:53;;;;;;;;;;;;;;;21.41;37.89;95917.59;10341402;28;2177;-61
2022/05/28 06:06:54;;;;;;;;;;;;;;;21.44;38.05;95922.31;10348860;28;2388;-62
2022/05/28 06:11:55;;;;;;;;;;;;;;;21.48;38.34;95918.06;10376166;28;2464;-62
2022/05/28 06:16:55;;;;;;;;;;;;;;;21.46;38.09;95920.19;10362705;28;2271;-62
2022/05/28 06:21:59;;;;;;;;;;;;;;;21.46;37.90;95914.91;10362038;28;2420;-62
2022/05/28 06:27:00;;;;;;;;;;;;;;;21.41;37.37;95914.94;10337880;28;2366;-62
2022/05/28 06:32:01;;;;;;;;;;;;;;;21.39;37.26;95919.72;10379783;28;2478;-63
2022/05/28 06:37:01;;;;;;;;;;;;;;;21.35;37.07;95903.63;10373581;28;2287;-63
2022/05/28 06:42:03;;;;;;;;;;;;;;;21.46;38.09;95912.25;10323935;28;2501;-59
2022/05/28 06:47:03;;;;;;;;;;;;;;;21.57;38.80;95911.94;10356781;28;2231;-59
2022/05/28 06:52:04;;;;;;;;;;;;;;;21.65;39.29;95911.34;10357341;28;2273;-61
2022/05/28 06:57:05;;;;;;;;;;;;;;;21.71;39.36;95907.59;10354388;28;2117;-60
2022/05/28 07:02:05;;;;;;;;;;;;;;;21.77;39.43;95909.13;10354088;28;2223;-60
2022/05/28 07:07:06;;;;;;;;;;;;;;;21.84;39.52;95912.25;10339241;28;2276;-60
2022/05/28 07:12:07;;;;;;;;;;;;;;;21.88;39.50;95915.91;10338191;28;2315;-61
2022/05/28 07:17:07;;;;;;;;;;;;;;;21.90;40.10;95915.66;10333976;28;2075;-63
2022/05/28 07:22:08;;;;;;;;;;;;;;;21.93;40.00;95915.06;10343961;28;2308;-64
2022/05/28 07:27:08;;;;;;;;;;;;;;;21.96;39.71;95919.81;10345868;28;2212;-63
2022/05/28 07:32:08;;;;;;;;;;;;;;;21.96;39.79;95919.81;10330439;28;2244;-63
2022/05/28 07:37:08;;;;;;;;;;;;;;;21.99;39.75;95916.59;10329646;28;2146;-62
2022/05/28 07:42:09;;;;;;;;;;;;;;;22.01;40.17;95914.47;10331674;28;2252;-60
2022/05/28 07:47:10;;;;;;;;;;;;;;;22.02;40.32;95916.06;10349543;28;2150;-63
2022/05/28 07:52:10;;;;;;;;;;;;;;;22.02;40.23;95913.41;10357239;28;2225;-62
2022/05/28 07:57:10;;;;;;;;;;;;;;;22.01;40.34;95901.28;10355151;28;2165;-63
2022/05/28 08:02:11;;;;;;;;;;;;;;;22.03;40.10;95914.97;10357764;28;2220;-63
2022/05/28 08:07:11;;;;;;;;;;;;;;;22.03;40.28;95909.69;10353418;28;2169;-63
2022/05/28 08:12:12;;;;;;;;;;;;;;;22.04;40.33;95911.28;10353052;28;2327;-63
2022/05/28 08:17:12;;;;;;;;;;;;;;;22.05;40.10;95918.13;10355114;28;2621;-62
2022/05/28 08:27:31;;;;;;;;;;;;;;;22.05;40.08;95918.13;10350623;28;2304;-63
2022/05/28 08:32:32;;;;;;;;;;;;;;;22.06;40.35;95930.28;10353516;28;2216;-62
2022/05/28 08:37:32;;;;;;;;;;;;;;;22.05;40.57;95918.13;10351173;28;2353;-63
2022/05/28 08:42:33;;;;;;;;;;;;;;;22.04;40.49;95926.34;10351561;28;2280;-62
2022/05/28 08:47:35;;;;;;;;;;;;;;;22.06;40.38;95927.63;10327226;28;2074;-64
2022/05/28 08:52:38;;;;;;;;;;;;;;;22.05;40.39;95923.41;10331708;28;2244;-63
2022/05/28 08:57:42;;;;;;;;;;;;;;;22.07;40.51;95918.63;10325755;28;2228;-63
2022/05/28 09:03:02;;;;;;;;;;;;;;;22.07;40.55;95926.56;10369885;28;2257;-64
2022/05/28 09:08:04;;;;;;;;;;;;;;;22.09;40.50;95927.06;10362507;28;2391;-61
2022/05/28 09:13:07;;;;;;;;;;;;;;;22.09;40.65;95921.03;10354365;28;2181;-61
2022/05/28 09:18:09;;;;;;;;;;;;;;;22.08;40.20;95922.84;10316840;28;2375;-63
2022/05/28 09:23:10;;;;;;;;;;;;;;;22.09;40.50;95927.06;10317225;28;2220;-63
2022/05/28 09:28:16;;;;;;;;;;;;;;;22.10;40.57;95914.66;10356373;28;2605;-63
2022/05/28 09:33:26;;;;;;;;;;;;;;;22.09;40.33;95919.13;10343367;28;2161;-63
2022/05/28 09:38:33;;;;;;;;;;;;;;;22.10;40.74;95910.16;10333414;28;2247;-63
2022/05/28 09:43:33;;;;;;;;;;;;;;;22.11;40.32;95910.97;10358642;28;2130;-63
2022/05/28 09:48:34;;;;;;;;;;;;;;;22.12;40.59;95908.03;10365076;28;2188;-62
2022/05/28 09:58:55;;;;;;;;;;;;;;;22.12;40.31;95908.03;10346230;28;2209;-60
2022/05/28 10:09:22;;;;;;;;;;;;;;;22.13;40.52;95904.34;10361061;28;2165;-61
2022/05/28 10:14:23;;;;;;;;;;;;;;;22.13;40.59;95909.63;10341058;28;2398;-62
2022/05/28 10:19:39;;;;;;;;;;;;;;;22.15;40.47;95898.78;10363260;28;2256;-62
2022/05/28 10:24:46;;;;;;;;;;;;;;;22.13;40.47;95907.00;10318781;28;2280;-62
2022/05/28 10:29:48;;;;;;;;;;;;;;;22.15;40.62;95898.78;10347123;28;2224;-61
2022/05/28 10:34:57;;;;;;;;;;;;;;;22.13;40.55;95896.44;10330709;28;2161;-62
2022/05/28 10:40:24;;;;;;;;;;;;;;;22.14;40.47;95894.56;10335678;28;2209;-62
2022/05/28 10:45:26;;;;;;;;;;;;;;;22.15;40.34;95889.00;10328161;28;2301;-62
2022/05/28 10:50:45;;;;;;;;;;;;;;;22.16;40.82;95892.41;10328194;28;2268;-61
2022/05/28 10:55:48;;;;;;;;;;;;;;;22.16;40.32;95895.84;10341330;28;2186;-62
2022/05/28 11:01:01;;;;;;;;;;;;;;;22.16;40.75;95877.38;10329955;28;2178;-63
2022/05/28 11:06:04;;;;;;;;;;;;;;;22.18;40.49;95885.78;10360111;28;2276;-62
2022/05/28 11:11:37;;;;;;;;;;;;;;;22.18;40.48;95874.44;10353039;28;2220;-63
2022/05/28 11:16:41;;;;;;;;;;;;;;;22.18;40.67;95885.00;10308283;28;2269;-61
2022/05/28 11:21:41;;;;;;;;;;;;;;;22.18;40.93;95872.59;10359488;28;2268;-62
2022/05/28 11:26:51;;;;;;;;;;;;;;;22.18;40.74;95863.88;10358434;28;2244;-63
2022/05/28 11:31:52;;;;;;;;;;;;;;;22.17;40.60;95863.13;10356339;28;2520;-61
2022/05/28 11:36:56;;;;;;;;;;;;;;;22.19;40.57;95858.34;10347015;28;2222;-63
2022/05/28 11:42:02;;;;;;;;;;;;;;;22.19;40.38;95842.50;10331851;28;2385;-59
2022/05/28 11:47:09;;;;;;;;;;;;;;;22.21;40.51;95842.22;10335646;28;2186;-62
2022/05/28 11:52:12;;;;;;;;;;;;;;;22.20;40.54;95830.84;10341193;28;2249;-63
2022/05/28 11:57:21;;;;;;;;;;;;;;;22.20;40.78;95828.22;10363845;28;2401;-62
2022/05/28 12:02:23;;;;;;;;;;;;;;;22.19;40.50;95821.38;10336688;28;2328;-61
2022/05/28 12:07:29;;;;;;;;;;;;;;;22.18;40.52;95814.50;10321137;28;2246;-61
2022/05/28 12:12:32;;;;;;;;;;;;;;;22.18;40.67;95814.50;10353174;28;2228;-62
2022/05/28 12:17:34;;;;;;;;;;;;;;;22.18;40.49;95806.59;10353175;28;2150;-62
2022/05/28 12:22:39;;;;;;;;;;;;;;;22.19;40.36;95796.81;10358116;28;2158;-63
2022/05/28 12:27:42;;;;;;;;;;;;;;;22.18;40.72;95780.19;10333731;28;2535;-62
2022/05/28 12:32:49;;;;;;;;;;;;;;;22.19;41.13;95787.06;10358268;28;2256;-62
2022/05/28 12:37:50;;;;;;;;;;;;;;;22.22;41.01;95769.84;10343840;28;2320;-61
2022/05/28 12:42:51;;;;;;;;;;;;;;;22.22;41.14;95775.13;10340731;28;2061;-63
2022/05/28 12:47:51;;;;;;;;;;;;;;;22.23;41.06;95766.13;10344910;28;2343;-62
2022/05/28 12:52:52;;;;;;;;;;;;;;;22.24;41.19;95770.34;10333890;28;2567;-61
2022/05/28 12:58:01;;;;;;;;;;;;;;;22.22;41.45;95752.16;10332556;28;2309;-62
2022/05/28 13:03:04;;;;;;;;;;;;;;;22.22;41.33;95749.50;10335717;28;2311;-63
2022/05/28 13:08:07;;;;;;;;;;;;;;;22.21;41.27;95742.66;10335218;28;2269;-62
2022/05/28 13:13:26;;;;;;;;;;;;;;;22.22;41.11;95738.94;10335786;28;2265;-64
2022/05/28 13:18:33;;;;;;;;;;;;;;;22.22;41.17;95738.94;10342668;28;2336;-63
2022/05/28 13:23:51;;;;;;;;;;;;;;;22.20;41.12;95735.81;10345636;28;2343;-64
2022/05/28 13:28:55;;;;;;;;;;;;;;;22.20;41.32;95735.81;10354822;28;2264;-61
2022/05/28 13:33:56;;;;;;;;;;;;;;;22.20;41.21;95733.16;10334379;28;2246;-62
2022/05/28 13:38:56;;;;;;;;;;;;;;;22.22;41.24;95731.03;10348572;28;2315;-63
2022/05/28 13:43:58;;;;;;;;;;;;;;;22.20;41.32;95721.81;10341210;28;2297;-65
2022/05/28 13:49:02;;;;;;;;;;;;;;;22.18;41.16;95716.81;10325594;28;2309;-65
2022/05/28 13:54:07;;;;;;;;;;;;;;;22.18;41.29;95711.53;10334509;28;2312;-64
2022/05/28 13:59:07;;;;;;;;;;;;;;;22.20;40.97;95716.53;10337378;28;2794;-64
2022/05/28 14:04:12;;;;;;;;;;;;;;;22.19;41.05;95713.13;10334087;28;2230;-64
2022/05/28 14:09:12;;;;;;;;;;;;;;;22.21;41.15;95716.25;10336699;28;2327;-62
2022/05/28 14:14:13;;;;;;;;;;;;;;;22.21;40.90;95704.91;10349772;28;2335;-64
2022/05/28 14:19:21;;;;;;;;;;;;;;;22.21;41.10;95705.69;10332056;28;2242;-64
2022/05/28 14:24:24;;;;;;;;;;;;;;;22.20;40.91;95690.91;10349038;28;2232;-61
2022/05/28 14:29:28;;;;;;;;;;;;;;;22.22;41.07;95694.06;10341216;28;2274;-64
2022/05/28 14:34:29;;;;;;;;;;;;;;;22.18;40.93;95700.97;10322535;28;2305;-63
2022/05/28 14:39:31;;;;;;;;;;;;;;;22.20;40.86;95696.19;10328700;28;2380;-63
2022/05/28 14:44:31;;;;;;;;;;;;;;;22.21;40.98;95692.50;10359171;28;2231;-63
2022/05/28 14:49:32;;;;;;;;;;;;;;;22.20;40.89;95688.28;10334622;28;2174;-63
2022/05/28 14:54:33;;;;;;;;;;;;;;;22.21;40.85;95679.31;10356779;28;2386;-63
2022/05/28 14:59:35;;;;;;;;;;;;;;;22.22;40.90;95670.28;10356589;28;2386;-64
2022/05/28 15:04:36;;;;;;;;;;;;;;;22.21;40.92;95663.47;10343189;28;2170;-62
2022/05/28 15:09:46;;;;;;;;;;;;;;;22.20;40.90;95653.16;10348618;28;2191;-63
2022/05/28 15:14:46;;;;;;;;;;;;;;;22.19;41.07;95655.03;10342329;28;2339;-65
2022/05/28 15:19:47;;;;;;;;;;;;;;;22.18;40.63;95653.44;10327175;28;2307;-62
2022/05/28 15:24:49;;;;;;;;;;;;;;;22.16;40.80;95645.03;10338344;28;2428;-64
2022/05/28 15:29:52;;;;;;;;;;;;;;;22.17;40.79;95635.28;10362569;28;2225;-64
2022/05/28 15:34:53;;;;;;;;;;;;;;;22.15;40.97;95621.56;10349868;28;2419;-63
2022/05/28 15:39:53;;;;;;;;;;;;;;;22.15;40.94;95625.00;10342481;28;2292;-63
2022/05/28 15:44:54;;;;;;;;;;;;;;;22.16;40.75;95618.63;10332282;28;2228;-64
2022/05/28 15:49:55;;;;;;;;;;;;;;;22.17;40.61;95620.22;10361999;28;2196;-64
2022/05/28 15:54:59;;;;;;;;;;;;;;;22.18;40.80;95628.91;10344095;28;2074;-64
2022/05/28 16:00:00;;;;;;;;;;;;;;;22.19;40.62;95614.66;10347864;28;2471;-64
2022/05/28 16:05:00;;;;;;;;;;;;;;;22.16;40.80;95612.56;10356190;28;2240;-64
2022/05/28 16:10:02;;;;;;;;;;;;;;;22.14;40.65;95615.50;10350420;28;2299;-64
2022/05/28 16:15:03;;;;;;;;;;;;;;;22.16;40.60;95617.84;10326384;28;2196;-61
2022/05/28 16:20:03;;;;;;;;;;;;;;;22.17;40.49;95614.94;10357425;28;2224;-64
2022/05/28 16:25:04;;;;;;;;;;;;;;;22.18;39.81;95607.78;10350926;28;2184;-63
2022/05/28 16:30:06;;;;;;;;;;;;;;;22.17;39.94;95598.31;10358872;28;2316;-64
2022/05/28 16:35:06;;;;;;;;;;;;;;;22.15;39.88;95605.72;10341038;28;2235;-60
2022/05/28 16:40:09;;;;;;;;;;;;;;;22.15;39.84;95601.25;10360412;28;2098;-63
2022/05/28 16:45:10;;;;;;;;;;;;;;;22.14;39.95;95596.22;10333608;28;2220;-63
2022/05/28 16:50:13;;;;;;;;;;;;;;;22.13;39.41;95599.94;10354491;28;2193;-63
2022/05/28 16:55:14;;;;;;;;;;;;;;;22.12;39.72;95598.38;10350548;28;2264;-62
2022/05/28 17:00:16;;;;;;;;;;;;;;;22.12;39.31;95604.44;10341511;28;2236;-62
2022/05/28 17:05:17;;;;;;;;;;;;;;;22.12;39.53;95599.16;10352476;28;2193;-61
2022/05/28 17:10:18;;;;;;;;;;;;;;;22.11;39.33;95591.53;10335265;28;2290;-61
2022/05/28 17:15:19;;;;;;;;;;;;;;;22.07;38.42;95599.22;10341892;28;2311;-63
2022/05/28 17:20:20;;;;;;;;;;;;;;;22.02;37.56;95591.38;10354964;28;2277;-62
2022/05/28 17:25:26;;;;;;;;;;;;;;;21.96;37.24;95599.66;10350193;28;2404;-62
2022/05/28 17:30:28;;;;;;;;;;;;;;;21.98;37.78;95600.16;10318554;28;2339;-62
2022/05/28 17:35:29;;;;;;;;;;;;;;;21.99;37.89;95607.03;10332887;28;2158;-63
2022/05/28 17:40:32;;;;;;;;;;;;;;;21.99;37.46;95602.50;10330905;28;2307;-61
2022/05/28 17:45:32;;;;;;;;;;;;;;;21.99;37.30;95601.75;10348000;28;2237;-63
2022/05/28 17:50:35;;;;;;;;;;;;;;;21.95;37.06;95606.78;10339483;28;2165;-62
2022/05/28 17:55:36;;;;;;;;;;;;;;;21.88;35.80;95601.09;10338198;28;2332;-64
2022/05/28 18:00:37;;;;;;;;;;;;;;;21.83;35.48;95607.22;10337427;28;2224;-63
2022/05/28 18:05:39;;;;;;;;;;;;;;;21.81;35.91;95606.72;10321352;28;2208;-63
2022/05/28 18:10:39;;;;;;;;;;;;;;;21.80;35.60;95602.47;10359140;28;2237;-61
2022/05/28 18:15:41;;;;;;;;;;;;;;;21.86;37.60;95600.59;10339361;28;2181;-62
2022/05/28 18:20:41;;;;;;;;;;;;;;;21.96;37.68;95605.72;10345404;28;2232;-63
2022/05/28 18:25:45;;;;;;;;;;;;;;;22.01;38.01;95605.66;10347340;28;2308;-64
2022/05/28 18:30:45;;;;;;;;;;;;;;;22.02;38.75;95601.94;10326963;28;2301;-63
2022/05/28 18:35:49;;;;;;;;;;;;;;;22.00;38.97;95604.09;10343411;28;2194;-63
2022/05/28 18:40:50;;;;;;;;;;;;;;;22.01;39.12;95600.38;10355095;28;2173;-63
2022/05/28 18:45:51;;;;;;;;;;;;;;;22.03;39.17;95592.19;10357798;28;2141;-63
2022/05/28 18:50:51;;;;;;;;;;;;;;;22.04;39.03;95594.53;10360765;28;2308;-62
2022/05/28 18:55:51;;;;;;;;;;;;;;;22.05;39.18;95598.72;10350460;28;2153;-63
2022/05/28 19:00:52;;;;;;;;;;;;;;;22.06;39.47;95597.66;10350516;28;2288;-62
2022/05/28 19:05:52;;;;;;;;;;;;;;;22.06;39.54;95594.22;10353294;28;2221;-63
2022/05/28 19:10:52;;;;;;;;;;;;;;;22.08;39.62;95594.72;10356088;28;2323;-62
2022/05/28 19:15:53;;;;;;;;;;;;;;;22.06;39.46;95594.22;10357273;28;2093;-63
2022/05/28 19:20:54;;;;;;;;;;;;;;;22.06;39.66;95591.59;10357968;28;2228;-61
2022/05/28 19:31:14;;;;;;;;;;;;;;;22.13;39.78;95590.19;10352240;28;2232;-61
2022/05/28 19:36:14;;;;;;;;;;;;;;;22.14;39.82;95594.38;10344451;28;2121;-62
2022/05/28 19:41:19;;;;;;;;;;;;;;;22.14;39.64;95594.38;10362335;28;2280;-63
2022/05/28 19:46:19;;;;;;;;;;;;;;;22.14;39.84;95589.09;10335772;28;2354;-62
2022/05/28 19:51:20;;;;;;;;;;;;;;;22.15;39.54;95582.75;10332510;28;2333;-61
2022/05/28 19:56:20;;;;;;;;;;;;;;;22.15;40.05;95584.59;10343567;28;2205;-62
2022/05/28 20:01:27;;;;;;;;;;;;;;;22.14;39.70;95583.81;10367493;28;2307;-62
2022/05/28 20:06:28;;;;;;;;;;;;;;;22.14;39.77;95577.75;10377436;28;2258;-61
2022/05/28 20:11:28;;;;;;;;;;;;;;;22.14;40.04;95583.03;10354962;28;2059;-62
2022/05/28 20:16:30;;;;;;;;;;;;;;;22.13;40.06;95573.56;10343568;28;2129;-63
2022/05/28 20:21:31;;;;;;;;;;;;;;;22.13;39.89;95574.34;10368273;28;2189;-63
2022/05/28 20:26:32;;;;;;;;;;;;;;;22.11;39.91;95571.22;10362541;28;2340;-63
2022/05/28 20:31:32;;;;;;;;;;;;;;;22.11;39.87;95565.13;10350922;28;2184;-63
2022/05/28 20:36:33;;;;;;;;;;;;;;;22.10;40.27;95551.16;10374363;28;2295;-61
2022/05/28 20:41:33;;;;;;;;;;;;;;;22.10;40.13;95545.06;10370740;28;2247;-62
2022/05/28 20:46:34;;;;;;;;;;;;;;;22.10;39.97;95547.72;10357990;28;2189;-59
2022/05/28 20:51:35;;;;;;;;;;;;;;;22.08;40.00;95540.09;10354700;28;2141;-62
2022/05/28 20:56:36;;;;;;;;;;;;;;;22.07;39.89;95541.16;10375859;28;2180;-62
2022/05/28 21:01:37;;;;;;;;;;;;;;;22.06;40.01;95534.31;10352348;28;2225;-62
2022/05/28 21:06:42;;;;;;;;;;;;;;;22.07;40.26;95533.22;10356615;28;2338;-61
2022/05/28 21:11:42;;;;;;;;;;;;;;;22.06;40.22;95522.97;10372354;28;2264;-62
2022/05/28 21:16:50;;;;;;;;;;;;;;;22.04;39.88;95517.97;10357425;28;2117;-62
2022/05/28 21:21:50;;;;;;;;;;;;;;;22.04;39.88;95525.91;10350581;28;2185;-63
2022/05/28 21:32:21;;;;;;;;;;;;;;;22.03;39.86;95519.03;10337463;28;2262;-62
2022/05/28 21:37:22;;;;;;;;;;;;;;;22.04;39.81;95514.56;10335383;28;2249;-62
2022/05/28 21:42:22;;;;;;;;;;;;;;;22.03;40.01;95505.84;10349758;28;2228;-61
2022/05/28 21:47:23;;;;;;;;;;;;;;;22.02;40.04;95506.13;10332868;28;2326;-62
2022/05/28 21:52:23;;;;;;;;;;;;;;;22.02;39.69;95501.66;10349870;28;2206;-61
2022/05/28 21:57:24;;;;;;;;;;;;;;;22.01;39.76;95486.13;10343646;28;2182;-61
2022/05/28 22:02:24;;;;;;;;;;;;;;;22.01;40.02;95494.03;10334503;28;2386;-62
2022/05/28 22:07:25;;;;;;;;;;;;;;;22.01;39.70;95480.84;10361424;28;2256;-58
2022/05/28 22:12:26;;;;;;;;;;;;;;;22.01;39.80;95486.88;10337955;28;2312;-62
2022/05/28 22:17:26;;;;;;;;;;;;;;;22.00;39.75;95473.97;10342359;28;2214;-62
2022/05/28 22:22:26;;;;;;;;;;;;;;;22.00;39.90;95474.75;10343453;28;2325;-62
2022/05/28 22:27:27;;;;;;;;;;;;;;;22.00;39.74;95477.41;10342384;28;2160;-62
2022/05/28 22:32:28;;;;;;;;;;;;;;;21.99;39.67;95467.91;10358400;28;2310;-62
2022/05/28 22:37:28;;;;;;;;;;;;;;;21.99;39.65;95465.25;10338474;28;2322;-62
2022/05/28 22:42:29;;;;;;;;;;;;;;;21.97;39.84;95450.81;10331270;28;2449;-62
2022/05/28 22:47:30;;;;;;;;;;;;;;;21.98;39.97;95453.16;10350734;28;2411;-62
2022/05/28 22:52:31;;;;;;;;;;;;;;;21.97;39.86;95445.53;10356025;28;2213;-61
2022/05/28 22:57:31;;;;;;;;;;;;;;;21.96;39.66;95438.69;10339710;28;2278;-62
2022/05/28 23:02:32;;;;;;;;;;;;;;;21.97;39.97;95429.69;10358577;28;2213;-62
2022/05/28 23:07:33;;;;;;;;;;;;;;;21.96;39.82;95423.63;10335109;28;2222;-62
2022/05/28 23:12:33;;;;;;;;;;;;;;;21.94;39.96;95407.31;10340110;28;2261;-62
2022/05/28 23:17:34;;;;;;;;;;;;;;;21.94;39.80;95404.66;10342172;28;2211;-63
2022/05/28 23:27:57;;;;;;;;;;;;;;;21.93;39.81;95387.25;10318315;28;2510;-63
2022/05/28 23:32:58;;;;;;;;;;;;;;;21.93;40.06;95375.94;10333868;28;2432;-61
2022/05/28 23:37:58;;;;;;;;;;;;;;;21.92;39.96;95369.06;10342459;28;2130;-62
2022/05/28 23:42:58;;;;;;;;;;;;;;;21.92;39.94;95367.22;10336376;28;2320;-62
2022/05/28 23:47:59;;;;;;;;;;;;;;;21.91;40.09;95363.00;10354318;28;2360;-62
2022/05/28 23:52:59;;;;;;;;;;;;;;;21.92;40.11;95367.22;10341592;28;2309;-61
2022/05/28 23:58:01;;;;;;;;;;;;;;;21.91;40.30;95368.28;10344078;28;2262;-61
